createdAt,value
2019-03-12T00:00:50.474Z,0.00
2019-03-12T00:01:50.464Z,0.00
2019-03-12T00:02:50.496Z,0.00
2019-03-12T00:03:50.448Z,0.00
2019-03-12T00:04:50.449Z,0.00
2019-03-12T00:05:50.439Z,0.00
2019-03-12T00:06:50.443Z,0.00
2019-03-12T00:07:50.455Z,0.00
2019-03-12T00:08:50.422Z,0.00
2019-03-12T00:09:53.620Z,0.00
2019-03-12T00:10:50.408Z,0.00
2019-03-12T00:11:50.402Z,0.00
2019-03-12T00:12:50.432Z,0.00
2019-03-12T00:13:50.392Z,0.00
2019-03-12T00:14:50.388Z,0.00
2019-03-12T00:15:50.376Z,0.00
2019-03-12T00:16:50.372Z,0.00
2019-03-12T00:17:50.401Z,0.00
2019-03-12T00:18:50.361Z,0.00
2019-03-12T00:19:50.357Z,0.00
2019-03-12T00:20:50.352Z,0.00
2019-03-12T00:21:50.344Z,0.00
2019-03-12T00:22:50.375Z,0.00
2019-03-12T00:23:50.335Z,0.00
2019-03-12T00:24:50.324Z,0.00
2019-03-12T00:25:50.320Z,0.00
2019-03-12T00:26:50.315Z,0.00
2019-03-12T00:27:50.340Z,0.00
2019-03-12T00:28:50.303Z,0.00
2019-03-12T00:29:50.294Z,0.00
2019-03-12T00:30:50.291Z,0.00
2019-03-12T00:31:50.287Z,0.00
2019-03-12T00:32:50.317Z,0.00
2019-03-12T00:33:50.273Z,0.00
2019-03-12T00:34:50.274Z,0.00
2019-03-12T00:35:50.266Z,0.00
2019-03-12T00:36:50.256Z,0.00
2019-03-12T00:37:50.283Z,0.00
2019-03-12T00:38:50.281Z,0.00
2019-03-12T00:39:50.242Z,0.00
2019-03-12T00:40:50.229Z,0.00
2019-03-12T00:41:50.227Z,0.00
2019-03-12T00:42:50.223Z,0.00
2019-03-12T00:43:50.257Z,0.00
2019-03-12T00:44:50.206Z,0.00
2019-03-12T00:45:50.202Z,0.00
2019-03-12T00:46:50.201Z,0.00
2019-03-12T00:47:50.191Z,0.00
2019-03-12T00:48:50.221Z,0.00
2019-03-12T00:49:50.178Z,0.00
2019-03-12T00:50:50.179Z,0.00
2019-03-12T00:51:50.165Z,0.00
2019-03-12T00:52:50.162Z,0.00
2019-03-12T00:53:50.191Z,0.00
2019-03-12T00:54:50.157Z,0.00
2019-03-12T00:55:50.146Z,0.00
2019-03-12T00:56:50.135Z,0.00
2019-03-12T00:57:50.133Z,0.00
2019-03-12T00:58:50.163Z,0.00
2019-03-12T00:59:50.122Z,0.00
2019-03-12T01:00:50.114Z,0.00
2019-03-12T01:01:50.108Z,0.00
2019-03-12T01:02:50.106Z,0.00
2019-03-12T01:03:50.146Z,0.00
2019-03-12T01:04:50.094Z,0.00
2019-03-12T01:05:50.087Z,0.00
2019-03-12T01:06:50.082Z,0.00
2019-03-12T01:07:50.074Z,0.00
2019-03-12T01:08:50.069Z,0.00
2019-03-12T01:09:50.096Z,0.00
2019-03-12T01:10:50.054Z,0.00
2019-03-12T01:11:50.053Z,0.00
2019-03-12T01:12:50.044Z,0.00
2019-03-12T01:13:50.072Z,0.00
2019-03-12T01:14:50.032Z,0.00
2019-03-12T01:15:50.028Z,0.00
2019-03-12T01:16:50.020Z,0.00
2019-03-12T01:17:50.101Z,0.00
2019-03-12T01:18:50.051Z,0.00
2019-03-12T01:19:50.010Z,0.00
2019-03-12T01:20:49.993Z,0.00
2019-03-12T01:21:49.992Z,0.00
2019-03-12T01:22:49.983Z,0.00
2019-03-12T01:23:50.011Z,0.00
2019-03-12T01:24:50.012Z,0.00
2019-03-12T01:25:49.968Z,0.00
2019-03-12T01:26:49.955Z,0.00
2019-03-12T01:27:49.955Z,0.00
2019-03-12T01:28:49.948Z,0.00
2019-03-12T01:29:49.984Z,0.00
2019-03-12T01:30:49.943Z,0.00
2019-03-12T01:31:49.933Z,0.00
2019-03-12T01:32:49.924Z,0.00
2019-03-12T01:33:49.925Z,0.00
2019-03-12T01:34:49.951Z,0.00
2019-03-12T01:35:49.910Z,0.00
2019-03-12T01:36:49.905Z,0.00
2019-03-12T01:37:49.895Z,0.00
2019-03-12T01:38:49.897Z,0.00
2019-03-12T01:39:49.919Z,0.00
2019-03-12T01:40:49.879Z,0.00
2019-03-12T01:41:49.870Z,0.00
2019-03-12T01:42:52.332Z,0.00
2019-03-12T01:43:49.859Z,0.00
2019-03-12T01:44:49.887Z,0.00
2019-03-12T01:45:49.851Z,0.00
2019-03-12T01:46:49.854Z,0.00
2019-03-12T01:47:49.832Z,0.00
2019-03-12T01:48:49.830Z,0.00
2019-03-12T01:49:49.859Z,0.00
2019-03-12T01:50:49.822Z,0.00
2019-03-12T01:51:49.812Z,0.00
2019-03-12T01:52:49.814Z,0.00
2019-03-12T01:53:49.800Z,0.00
2019-03-12T01:54:49.826Z,0.00
2019-03-12T01:55:49.786Z,0.00
2019-03-12T01:56:49.784Z,0.00
2019-03-12T01:57:49.777Z,0.00
2019-03-12T01:58:49.772Z,0.00
2019-03-12T01:59:49.797Z,0.00
2019-03-12T02:00:49.758Z,0.00
2019-03-12T02:01:49.756Z,0.00
2019-03-12T02:02:49.747Z,0.00
2019-03-12T02:03:49.742Z,0.00
2019-03-12T02:04:49.815Z,0.00
2019-03-12T02:05:49.732Z,0.00
2019-03-12T02:06:49.725Z,0.00
2019-03-12T02:07:49.721Z,0.00
2019-03-12T02:08:49.713Z,0.00
2019-03-12T02:09:49.734Z,0.00
2019-03-12T02:10:49.697Z,0.00
2019-03-12T02:11:49.694Z,0.00
2019-03-12T02:12:49.685Z,0.00
2019-03-12T02:13:49.683Z,0.00
2019-03-12T02:14:49.710Z,0.00
2019-03-12T02:15:49.668Z,0.00
2019-03-12T02:16:49.658Z,0.00
2019-03-12T02:17:49.656Z,0.00
2019-03-12T02:18:49.649Z,0.00
2019-03-12T02:19:49.676Z,0.00
2019-03-12T02:20:49.635Z,0.00
2019-03-12T02:21:49.640Z,0.00
2019-03-12T02:22:49.625Z,0.00
2019-03-12T02:23:49.620Z,0.00
2019-03-12T02:24:52.945Z,0.00
2019-03-12T02:25:49.609Z,0.00
2019-03-12T02:26:49.600Z,0.00
2019-03-12T02:27:49.596Z,0.00
2019-03-12T02:28:49.589Z,0.00
2019-03-12T02:29:49.615Z,0.00
2019-03-12T02:30:49.615Z,0.00
2019-03-12T02:31:49.577Z,0.00
2019-03-12T02:32:49.568Z,0.00
2019-03-12T02:33:49.563Z,0.00
2019-03-12T02:34:49.557Z,0.00
2019-03-12T02:35:49.588Z,0.00
2019-03-12T02:36:49.545Z,0.00
2019-03-12T02:37:49.539Z,0.00
2019-03-12T02:38:49.598Z,0.00
2019-03-12T02:39:49.525Z,0.00
2019-03-12T02:40:49.553Z,0.00
2019-03-12T02:41:49.514Z,0.00
2019-03-12T02:42:49.505Z,0.00
2019-03-12T02:43:49.507Z,0.00
2019-03-12T02:44:49.620Z,0.00
2019-03-12T02:45:49.521Z,0.00
2019-03-12T02:46:49.484Z,0.00
2019-03-12T02:47:49.482Z,0.00
2019-03-12T02:48:49.528Z,0.00
2019-03-12T02:49:49.468Z,0.00
2019-03-12T02:50:49.491Z,0.00
2019-03-12T02:51:49.451Z,0.00
2019-03-12T02:52:49.454Z,0.00
2019-03-12T02:53:49.439Z,0.00
2019-03-12T02:54:49.434Z,0.00
2019-03-12T02:55:49.459Z,0.00
2019-03-12T02:56:49.423Z,0.00
2019-03-12T02:57:49.415Z,0.00
2019-03-12T02:58:49.411Z,0.00
2019-03-12T02:59:49.402Z,0.00
2019-03-12T03:00:49.459Z,0.00
2019-03-12T03:01:49.395Z,0.00
2019-03-12T03:02:49.381Z,0.00
2019-03-12T03:03:49.382Z,0.00
2019-03-12T03:04:53.716Z,0.00
2019-03-12T03:05:49.403Z,0.00
2019-03-12T03:06:49.360Z,0.00
2019-03-12T03:07:49.360Z,0.00
2019-03-12T03:08:49.347Z,0.00
2019-03-12T03:09:49.341Z,0.00
2019-03-12T03:10:49.385Z,0.00
2019-03-12T03:11:51.236Z,0.00
2019-03-12T03:12:49.321Z,0.00
2019-03-12T03:13:49.316Z,0.00
2019-03-12T03:14:49.310Z,0.00
2019-03-12T03:15:49.342Z,0.00
2019-03-12T03:16:49.297Z,0.00
2019-03-12T03:17:49.292Z,0.00
2019-03-12T03:18:49.282Z,0.00
2019-03-12T03:19:49.279Z,0.00
2019-03-12T03:20:49.311Z,0.00
2019-03-12T03:21:49.266Z,0.00
2019-03-12T03:22:49.265Z,0.00
2019-03-12T03:23:49.269Z,0.00
2019-03-12T03:24:49.249Z,0.00
2019-03-12T03:25:49.278Z,0.00
2019-03-12T03:26:49.236Z,0.00
2019-03-12T03:27:49.241Z,0.00
2019-03-12T03:28:49.225Z,0.00
2019-03-12T03:29:49.220Z,0.00
2019-03-12T03:30:49.248Z,0.00
2019-03-12T03:31:49.211Z,0.00
2019-03-12T03:32:49.196Z,0.00
2019-03-12T03:33:49.192Z,0.00
2019-03-12T03:34:49.191Z,0.00
2019-03-12T03:35:49.176Z,0.00
2019-03-12T03:36:49.208Z,0.00
2019-03-12T03:37:49.164Z,0.00
2019-03-12T03:38:49.170Z,0.00
2019-03-12T03:39:49.157Z,0.00
2019-03-12T03:40:49.148Z,0.00
2019-03-12T03:41:49.181Z,0.00
2019-03-12T03:42:49.142Z,0.00
2019-03-12T03:43:49.129Z,0.00
2019-03-12T03:44:49.129Z,0.00
2019-03-12T03:45:49.119Z,0.00
2019-03-12T03:46:49.171Z,0.00
2019-03-12T03:47:49.113Z,0.00
2019-03-12T03:48:49.104Z,0.00
2019-03-12T03:49:49.095Z,0.00
2019-03-12T03:50:49.094Z,0.00
2019-03-12T03:51:49.149Z,0.00
2019-03-12T03:52:49.084Z,0.00
2019-03-12T03:53:49.071Z,0.00
2019-03-12T03:54:49.065Z,0.00
2019-03-12T03:55:49.055Z,0.00
2019-03-12T03:56:49.087Z,0.00
2019-03-12T03:57:49.079Z,0.00
2019-03-12T03:58:49.039Z,0.00
2019-03-12T03:59:49.039Z,0.00
2019-03-12T04:00:49.028Z,0.00
2019-03-12T04:01:49.059Z,0.00
2019-03-12T04:02:49.097Z,0.00
2019-03-12T04:03:49.005Z,0.00
2019-03-12T04:04:49.003Z,0.00
2019-03-12T04:05:48.999Z,0.00
2019-03-12T04:06:49.023Z,0.00
2019-03-12T04:07:48.995Z,0.00
2019-03-12T04:08:48.988Z,0.00
2019-03-12T04:09:48.981Z,0.00
2019-03-12T04:10:48.978Z,0.00
2019-03-12T04:11:48.994Z,0.00
2019-03-12T04:12:48.984Z,0.00
2019-03-12T04:13:49.006Z,0.00
2019-03-12T04:14:48.981Z,0.00
2019-03-12T04:15:48.946Z,0.00
2019-03-12T04:16:48.939Z,0.00
2019-03-12T04:17:48.954Z,0.00
2019-03-12T04:18:48.918Z,0.00
2019-03-12T04:19:48.907Z,0.00
2019-03-12T04:20:48.907Z,0.00
2019-03-12T04:21:49.002Z,0.00
2019-03-12T04:22:48.998Z,0.00
2019-03-12T04:23:48.880Z,0.00
2019-03-12T04:24:48.885Z,0.00
2019-03-12T04:25:48.879Z,0.00
2019-03-12T04:26:48.899Z,0.00
2019-03-12T04:27:48.864Z,0.00
2019-03-12T04:28:48.846Z,0.00
2019-03-12T04:29:48.841Z,0.00
2019-03-12T04:30:48.846Z,0.00
2019-03-12T04:31:48.864Z,0.00
2019-03-12T04:32:48.824Z,0.00
2019-03-12T04:33:48.820Z,0.00
2019-03-12T04:34:48.815Z,0.00
2019-03-12T04:35:48.803Z,0.00
2019-03-12T04:36:48.832Z,0.00
2019-03-12T04:37:48.793Z,0.00
2019-03-12T04:38:48.783Z,0.00
2019-03-12T04:39:48.785Z,0.00
2019-03-12T04:40:48.772Z,0.00
2019-03-12T04:41:48.803Z,0.00
2019-03-12T04:42:48.795Z,0.00
2019-03-12T04:43:48.757Z,0.00
2019-03-12T04:44:48.747Z,0.00
2019-03-12T04:45:48.738Z,0.00
2019-03-12T04:46:48.738Z,0.00
2019-03-12T04:47:48.771Z,0.00
2019-03-12T04:48:48.726Z,0.00
2019-03-12T04:49:48.723Z,0.00
2019-03-12T04:50:48.711Z,0.00
2019-03-12T04:51:48.738Z,0.00
2019-03-12T04:52:48.693Z,0.00
2019-03-12T04:53:48.692Z,0.00
2019-03-12T04:54:48.691Z,0.00
2019-03-12T04:55:48.683Z,0.00
2019-03-12T04:56:48.706Z,0.00
2019-03-12T04:57:48.743Z,0.00
2019-03-12T04:58:48.660Z,0.00
2019-03-12T04:59:48.660Z,0.00
2019-03-12T05:00:48.682Z,0.00
2019-03-12T05:01:48.713Z,0.00
2019-03-12T05:02:48.634Z,0.00
2019-03-12T05:03:48.630Z,0.00
2019-03-12T05:04:48.629Z,0.00
2019-03-12T05:05:48.639Z,0.00
2019-03-12T05:06:48.695Z,0.00
2019-03-12T05:07:48.605Z,0.00
2019-03-12T05:08:48.592Z,0.00
2019-03-12T05:09:48.591Z,0.00
2019-03-12T05:10:48.608Z,0.00
2019-03-12T05:11:48.697Z,0.00
2019-03-12T05:12:48.570Z,0.00
2019-03-12T05:13:48.567Z,0.00
2019-03-12T05:14:48.560Z,0.00
2019-03-12T05:15:48.574Z,0.00
2019-03-12T05:16:48.590Z,0.00
2019-03-12T05:17:48.541Z,0.00
2019-03-12T05:18:48.535Z,0.00
2019-03-12T05:19:48.533Z,0.00
2019-03-12T05:20:48.524Z,0.00
2019-03-12T05:21:48.553Z,0.00
2019-03-12T05:22:48.543Z,0.00
2019-03-12T05:23:48.505Z,0.00
2019-03-12T05:24:48.496Z,0.00
2019-03-12T05:25:48.583Z,0.00
2019-03-12T05:26:48.489Z,0.00
2019-03-12T05:27:48.513Z,0.00
2019-03-12T05:28:48.468Z,5.63
2019-03-12T05:29:48.468Z,5.63
2019-03-12T05:30:48.469Z,5.63
2019-03-12T05:31:48.461Z,5.63
2019-03-12T05:32:48.485Z,5.63
2019-03-12T05:33:48.452Z,11.25
2019-03-12T05:34:48.436Z,11.25
2019-03-12T05:35:48.432Z,11.25
2019-03-12T05:36:48.424Z,11.25
2019-03-12T05:37:48.461Z,16.88
2019-03-12T05:38:48.417Z,16.88
2019-03-12T05:39:48.441Z,22.50
2019-03-12T05:40:48.400Z,22.50
2019-03-12T05:41:48.398Z,28.13
2019-03-12T05:42:48.448Z,28.13
2019-03-12T05:43:48.381Z,33.75
2019-03-12T05:44:48.379Z,33.75
2019-03-12T05:45:48.373Z,39.38
2019-03-12T05:46:48.374Z,39.38
2019-03-12T05:47:48.397Z,45.00
2019-03-12T05:48:48.356Z,50.63
2019-03-12T05:49:48.350Z,56.25
2019-03-12T05:50:48.343Z,61.88
2019-03-12T05:51:48.342Z,67.50
2019-03-12T05:52:49.339Z,67.50
2019-03-12T05:53:48.323Z,73.13
2019-03-12T05:54:48.321Z,78.75
2019-03-12T05:55:48.310Z,95.63
2019-03-12T05:56:48.344Z,101.25
2019-03-12T05:57:48.307Z,101.25
2019-03-12T05:58:48.301Z,90.00
2019-03-12T05:59:48.296Z,73.13
2019-03-12T06:00:48.286Z,73.13
2019-03-12T06:01:48.313Z,78.75
2019-03-12T06:02:48.357Z,84.38
2019-03-12T06:03:48.270Z,90.00
2019-03-12T06:04:48.379Z,101.25
2019-03-12T06:05:48.256Z,112.50
2019-03-12T06:06:48.288Z,129.38
2019-03-12T06:07:48.245Z,135.00
2019-03-12T06:08:48.241Z,146.25
2019-03-12T06:09:48.235Z,151.88
2019-03-12T06:10:48.225Z,157.50
2019-03-12T06:11:48.259Z,168.75
2019-03-12T06:12:48.216Z,180.00
2019-03-12T06:13:48.207Z,191.25
2019-03-12T06:14:48.198Z,208.13
2019-03-12T06:15:48.195Z,225.00
2019-03-12T06:16:48.228Z,225.00
2019-03-12T06:17:48.189Z,225.00
2019-03-12T06:18:48.184Z,213.75
2019-03-12T06:19:48.174Z,208.13
2019-03-12T06:20:48.172Z,213.75
2019-03-12T06:21:48.205Z,225.00
2019-03-12T06:22:48.160Z,247.50
2019-03-12T06:23:48.181Z,275.63
2019-03-12T06:24:48.146Z,281.25
2019-03-12T06:25:48.140Z,275.63
2019-03-12T06:26:48.169Z,309.38
2019-03-12T06:27:48.139Z,427.50
2019-03-12T06:28:48.123Z,500.63
2019-03-12T06:29:48.232Z,495.00
2019-03-12T06:30:48.115Z,438.75
2019-03-12T06:31:48.142Z,365.63
2019-03-12T06:32:48.101Z,405.00
2019-03-12T06:33:48.100Z,393.75
2019-03-12T06:34:48.093Z,320.63
2019-03-12T06:35:48.089Z,315.00
2019-03-12T06:36:48.125Z,320.63
2019-03-12T06:37:48.078Z,331.88
2019-03-12T06:38:48.074Z,348.75
2019-03-12T06:39:48.078Z,354.38
2019-03-12T06:40:48.058Z,354.38
2019-03-12T06:41:48.102Z,343.13
2019-03-12T06:42:48.058Z,348.75
2019-03-12T06:43:48.049Z,348.75
2019-03-12T06:44:48.047Z,348.75
2019-03-12T06:45:48.040Z,348.75
2019-03-12T06:46:48.071Z,360.00
2019-03-12T06:47:48.028Z,354.38
2019-03-12T06:48:48.024Z,348.75
2019-03-12T06:49:48.017Z,343.13
2019-03-12T06:50:48.009Z,343.13
2019-03-12T06:51:48.043Z,365.63
2019-03-12T06:52:48.002Z,416.25
2019-03-12T06:53:47.996Z,450.00
2019-03-12T06:54:47.992Z,483.75
2019-03-12T06:55:47.987Z,517.50
2019-03-12T06:56:48.019Z,540.00
2019-03-12T06:57:47.979Z,551.25
2019-03-12T06:58:47.980Z,607.50
2019-03-12T06:59:47.966Z,680.63
2019-03-12T07:00:47.967Z,652.50
2019-03-12T07:01:47.997Z,635.63
2019-03-12T07:02:48.031Z,585.00
2019-03-12T07:03:47.952Z,568.13
2019-03-12T07:04:47.960Z,511.88
2019-03-12T07:05:47.945Z,495.00
2019-03-12T07:06:47.979Z,506.25
2019-03-12T07:07:47.935Z,500.63
2019-03-12T07:08:47.923Z,500.63
2019-03-12T07:09:47.924Z,506.25
2019-03-12T07:10:47.926Z,500.63
2019-03-12T07:11:47.974Z,495.00
2019-03-12T07:12:47.914Z,810.00
2019-03-12T07:13:47.904Z,455.63
2019-03-12T07:14:47.900Z,427.50
2019-03-12T07:15:47.898Z,450.00
2019-03-12T07:16:47.936Z,686.25
2019-03-12T07:17:47.894Z,663.75
2019-03-12T07:18:47.887Z,500.63
2019-03-12T07:19:47.881Z,1951.88
2019-03-12T07:20:47.878Z,1912.50
2019-03-12T07:21:47.910Z,1738.13
2019-03-12T07:22:47.870Z,1935.00
2019-03-12T07:23:47.866Z,1800.00
2019-03-12T07:24:47.862Z,1693.13
2019-03-12T07:25:50.729Z,1665.00
2019-03-12T07:26:47.899Z,1710.00
2019-03-12T07:27:47.854Z,1738.13
2019-03-12T07:28:50.703Z,1833.75
2019-03-12T07:29:47.849Z,2030.63
2019-03-12T07:30:47.884Z,1040.63
2019-03-12T07:31:47.846Z,2115.00
2019-03-12T07:32:47.875Z,2160.00
2019-03-12T07:33:47.838Z,2188.13
2019-03-12T07:34:47.838Z,2103.75
2019-03-12T07:35:47.840Z,2261.25
2019-03-12T07:36:47.873Z,2413.13
2019-03-12T07:37:47.841Z,2413.13
2019-03-12T07:38:47.837Z,2480.63
2019-03-12T07:39:47.832Z,2238.75
2019-03-12T07:40:47.836Z,2362.50
2019-03-12T07:41:47.868Z,2278.13
2019-03-12T07:42:47.833Z,1755.00
2019-03-12T07:43:47.830Z,2272.50
2019-03-12T07:44:47.836Z,2452.50
2019-03-12T07:45:47.829Z,2266.88
2019-03-12T07:46:47.879Z,2053.13
2019-03-12T07:47:47.867Z,2205.00
2019-03-12T07:48:47.833Z,2272.50
2019-03-12T07:49:47.836Z,2356.88
2019-03-12T07:50:47.836Z,2559.38
2019-03-12T07:51:47.830Z,2655.00
2019-03-12T07:52:47.875Z,2705.63
2019-03-12T07:53:58.824Z,2295.00
2019-03-12T07:54:47.836Z,1929.38
2019-03-12T07:55:47.837Z,2092.50
2019-03-12T07:56:47.835Z,1935.00
2019-03-12T07:57:47.875Z,2221.88
2019-03-12T07:58:47.836Z,2154.38
2019-03-12T07:59:47.835Z,2458.13
2019-03-12T08:00:47.836Z,2300.63
2019-03-12T08:01:47.878Z,2548.13
2019-03-12T08:02:47.839Z,2520.00
2019-03-12T08:03:47.839Z,2643.75
2019-03-12T08:04:47.840Z,2711.25
2019-03-12T08:05:47.843Z,1974.38
2019-03-12T08:06:47.883Z,1164.38
2019-03-12T08:07:47.879Z,1428.75
2019-03-12T08:08:47.843Z,2683.13
2019-03-12T08:09:47.843Z,973.13
2019-03-12T08:10:47.848Z,686.25
2019-03-12T08:11:47.848Z,759.38
2019-03-12T08:12:47.887Z,2278.13
2019-03-12T08:13:47.857Z,2221.88
2019-03-12T08:14:47.849Z,2514.38
2019-03-12T08:15:50.360Z,2773.13
2019-03-12T08:16:47.851Z,2688.75
2019-03-12T08:17:47.891Z,2188.13
2019-03-12T08:18:47.855Z,2497.50
2019-03-12T08:19:47.857Z,1490.63
2019-03-12T08:20:48.491Z,1411.88
2019-03-12T08:21:49.780Z,1243.13
2019-03-12T08:22:47.896Z,922.50
2019-03-12T08:23:47.859Z,2109.38
2019-03-12T08:24:47.856Z,2109.38
2019-03-12T08:25:47.863Z,1833.75
2019-03-12T08:26:47.899Z,1895.63
2019-03-12T08:27:47.904Z,1845.00
2019-03-12T08:28:47.859Z,1867.50
2019-03-12T08:29:47.864Z,1884.38
2019-03-12T08:30:47.866Z,1743.75
2019-03-12T08:31:47.866Z,1760.63
2019-03-12T08:32:47.902Z,1777.50
2019-03-12T08:33:50.833Z,1648.13
2019-03-12T08:34:47.869Z,1507.50
2019-03-12T08:35:47.878Z,1496.25
2019-03-12T08:36:47.874Z,1479.38
2019-03-12T08:37:47.918Z,1389.38
2019-03-12T08:38:47.878Z,1541.25
2019-03-12T08:39:47.886Z,1653.75
2019-03-12T08:40:52.536Z,759.38
2019-03-12T08:41:47.922Z,787.50
2019-03-12T08:42:54.521Z,1828.13
2019-03-12T08:43:47.917Z,1383.75
2019-03-12T08:44:47.891Z,1743.75
2019-03-12T08:45:48.871Z,1839.38
2019-03-12T08:46:47.933Z,1923.75
2019-03-12T08:47:47.900Z,2058.75
2019-03-12T08:48:47.898Z,1603.13
2019-03-12T08:49:47.907Z,2160.00
2019-03-12T08:50:47.919Z,2002.50
2019-03-12T08:51:47.954Z,1828.13
2019-03-12T08:52:47.907Z,1833.75
2019-03-12T08:53:47.914Z,2126.25
2019-03-12T08:54:54.296Z,2131.88
2019-03-12T08:55:47.911Z,2570.63
2019-03-12T08:56:47.952Z,2643.75
2019-03-12T08:57:47.918Z,2548.13
2019-03-12T08:58:47.925Z,2396.25
2019-03-12T08:59:47.926Z,2430.00
2019-03-12T09:00:47.929Z,2491.88
2019-03-12T09:01:47.972Z,2508.75
2019-03-12T09:02:47.945Z,2520.00
2019-03-12T09:03:47.940Z,2086.88
2019-03-12T09:04:47.944Z,2165.63
2019-03-12T09:05:47.945Z,2306.25
2019-03-12T09:06:47.984Z,2390.63
2019-03-12T09:07:47.953Z,2559.38
2019-03-12T09:08:47.960Z,2368.13
2019-03-12T09:09:47.961Z,1636.88
2019-03-12T09:10:47.969Z,2036.25
2019-03-12T09:11:48.005Z,1918.13
2019-03-12T09:12:47.970Z,675.00
2019-03-12T09:13:47.983Z,2109.38
2019-03-12T09:14:47.980Z,2143.13
2019-03-12T09:15:47.984Z,2148.75
2019-03-12T09:16:47.993Z,2351.25
2019-03-12T09:17:48.024Z,2503.13
2019-03-12T09:18:47.994Z,2745.00
2019-03-12T09:19:48.002Z,2716.88
2019-03-12T09:20:47.999Z,2390.63
2019-03-12T09:21:48.019Z,2025.00
2019-03-12T09:22:48.050Z,1929.38
2019-03-12T09:23:48.015Z,2036.25
2019-03-12T09:24:48.021Z,1833.75
2019-03-12T09:25:48.098Z,1710.00
2019-03-12T09:26:48.026Z,2025.00
2019-03-12T09:27:48.070Z,2154.38
2019-03-12T09:28:48.035Z,1822.50
2019-03-12T09:29:48.043Z,2598.75
2019-03-12T09:30:48.048Z,1406.25
2019-03-12T09:31:48.055Z,1051.88
2019-03-12T09:32:48.093Z,933.75
2019-03-12T09:33:48.059Z,888.75
2019-03-12T09:34:48.071Z,1760.63
2019-03-12T09:35:48.064Z,2233.13
2019-03-12T09:36:48.077Z,1276.88
2019-03-12T09:37:48.112Z,2424.38
2019-03-12T09:38:48.077Z,967.50
2019-03-12T09:39:48.086Z,1102.50
2019-03-12T09:40:48.087Z,1991.25
2019-03-12T09:41:48.094Z,2548.13
2019-03-12T09:42:48.126Z,2570.63
2019-03-12T09:43:48.380Z,1220.63
2019-03-12T09:44:48.100Z,950.63
2019-03-12T09:45:48.102Z,1231.88
2019-03-12T09:46:48.103Z,1220.63
2019-03-12T09:47:48.155Z,1293.75
2019-03-12T09:48:48.111Z,1102.50
2019-03-12T09:49:48.116Z,2311.88
2019-03-12T09:50:48.114Z,1209.38
2019-03-12T09:51:48.115Z,2986.88
2019-03-12T09:52:48.158Z,3161.25
2019-03-12T09:53:48.122Z,3493.13
2019-03-12T09:54:48.131Z,1338.75
2019-03-12T09:55:48.131Z,3195.00
2019-03-12T09:56:48.134Z,2823.75
2019-03-12T09:57:48.171Z,1130.63
2019-03-12T09:58:48.135Z,3431.25
2019-03-12T09:59:48.140Z,3988.13
2019-03-12T10:00:48.140Z,4213.13
2019-03-12T10:01:48.153Z,4269.38
2019-03-12T10:02:48.186Z,4488.75
2019-03-12T10:03:48.156Z,4196.25
2019-03-12T10:04:48.161Z,4263.75
2019-03-12T10:05:48.157Z,939.38
2019-03-12T10:06:48.169Z,3819.38
2019-03-12T10:07:48.205Z,3341.25
2019-03-12T10:08:48.175Z,3459.38
2019-03-12T10:09:48.210Z,4072.50
2019-03-12T10:10:48.186Z,4471.88
2019-03-12T10:11:48.272Z,1153.13
2019-03-12T10:12:48.230Z,2334.38
2019-03-12T10:13:48.207Z,3858.75
2019-03-12T10:14:48.207Z,2908.13
2019-03-12T10:15:48.216Z,961.88
2019-03-12T10:16:48.250Z,933.75
2019-03-12T10:17:48.221Z,916.88
2019-03-12T10:18:48.229Z,922.50
2019-03-12T10:19:48.238Z,961.88
2019-03-12T10:20:48.734Z,1035.00
2019-03-12T10:21:48.368Z,3369.38
2019-03-12T10:22:48.297Z,945.00
2019-03-12T10:23:48.300Z,2019.38
2019-03-12T10:24:48.262Z,1125.00
2019-03-12T10:25:48.358Z,973.13
2019-03-12T10:26:48.267Z,978.75
2019-03-12T10:27:48.295Z,3453.75
2019-03-12T10:28:48.258Z,3723.75
2019-03-12T10:29:48.357Z,2745.00
2019-03-12T10:30:48.308Z,1260.00
2019-03-12T10:31:48.270Z,1068.75
2019-03-12T10:32:48.309Z,3498.75
2019-03-12T10:33:48.277Z,3431.25
2019-03-12T10:34:48.298Z,3757.50
2019-03-12T10:35:48.435Z,3093.75
2019-03-12T10:36:48.599Z,3583.13
2019-03-12T10:37:48.287Z,3358.13
2019-03-12T10:38:48.326Z,3133.13
2019-03-12T10:39:48.293Z,3459.38
2019-03-12T10:40:48.328Z,3690.00
2019-03-12T10:41:48.301Z,3836.25
2019-03-12T10:42:48.305Z,3768.75
2019-03-12T10:43:48.342Z,3645.00
2019-03-12T10:44:48.416Z,3555.00
2019-03-12T10:45:48.321Z,3763.13
2019-03-12T10:46:48.355Z,3982.50
2019-03-12T10:47:48.335Z,3847.50
2019-03-12T10:48:48.374Z,2587.50
2019-03-12T10:49:48.346Z,4196.25
2019-03-12T10:50:48.354Z,3993.75
2019-03-12T10:51:48.358Z,3870.00
2019-03-12T10:52:48.421Z,1299.38
2019-03-12T10:53:48.412Z,1018.13
2019-03-12T10:54:48.379Z,3667.50
2019-03-12T10:55:48.385Z,1726.88
2019-03-12T10:56:48.393Z,2953.13
2019-03-12T10:57:48.404Z,4106.25
2019-03-12T10:58:48.441Z,2334.38
2019-03-12T10:59:48.418Z,4095.00
2019-03-12T11:00:48.417Z,3026.25
2019-03-12T11:01:48.422Z,4381.88
2019-03-12T11:02:48.427Z,4516.88
2019-03-12T11:03:48.490Z,1366.88
2019-03-12T11:04:48.448Z,4168.13
2019-03-12T11:05:48.455Z,4095.00
2019-03-12T11:06:48.455Z,2036.25
2019-03-12T11:07:48.461Z,1845.00
2019-03-12T11:08:48.498Z,1518.75
2019-03-12T11:09:48.475Z,3583.13
2019-03-12T11:10:48.483Z,3931.88
2019-03-12T11:11:48.487Z,3802.50
2019-03-12T11:12:48.500Z,3481.88
2019-03-12T11:13:48.571Z,1749.38
2019-03-12T11:14:48.508Z,1125.00
2019-03-12T11:15:48.513Z,3195.00
2019-03-12T11:16:48.518Z,2953.13
2019-03-12T11:17:50.232Z,3206.25
2019-03-12T11:18:48.565Z,3330.00
2019-03-12T11:19:48.540Z,3611.25
2019-03-12T11:20:48.544Z,3442.50
2019-03-12T11:21:48.551Z,3105.00
2019-03-12T11:22:48.557Z,1816.88
2019-03-12T11:23:48.673Z,2238.75
2019-03-12T11:24:48.571Z,1181.25
2019-03-12T11:25:48.579Z,2795.63
2019-03-12T11:26:48.586Z,2835.00
2019-03-12T11:27:48.589Z,3071.25
2019-03-12T11:28:48.629Z,1395.00
2019-03-12T11:29:48.601Z,3166.88
2019-03-12T11:30:48.608Z,3071.25
2019-03-12T11:31:48.647Z,1338.75
2019-03-12T11:32:48.622Z,1158.75
2019-03-12T11:33:48.621Z,1350.00
2019-03-12T11:34:48.674Z,3481.88
2019-03-12T11:35:48.628Z,3026.25
2019-03-12T11:36:48.652Z,1620.00
2019-03-12T11:37:48.972Z,3566.25
2019-03-12T11:38:48.655Z,3498.75
2019-03-12T11:39:48.725Z,3391.88
2019-03-12T11:40:48.700Z,3391.88
2019-03-12T11:41:48.661Z,1974.38
2019-03-12T11:42:48.678Z,2250.00
2019-03-12T11:43:48.925Z,3785.63
2019-03-12T11:44:48.716Z,3937.50
2019-03-12T11:45:48.696Z,4021.88
2019-03-12T11:46:48.694Z,2801.25
2019-03-12T11:47:48.797Z,1389.38
2019-03-12T11:48:49.118Z,1676.25
2019-03-12T11:49:48.754Z,1181.25
2019-03-12T11:50:48.725Z,939.38
2019-03-12T11:51:48.742Z,1130.63
2019-03-12T11:52:54.790Z,3740.63
2019-03-12T11:53:48.770Z,2891.25
2019-03-12T11:54:49.168Z,2823.75
2019-03-12T11:55:48.753Z,3251.25
2019-03-12T11:56:48.785Z,3228.75
2019-03-12T11:57:48.838Z,3065.63
2019-03-12T11:58:48.812Z,3144.38
2019-03-12T11:59:48.777Z,3026.25
2019-03-12T12:00:48.791Z,2818.13
2019-03-12T12:01:48.801Z,2671.88
2019-03-12T12:02:59.390Z,2621.25
2019-03-12T12:03:48.809Z,2840.63
2019-03-12T12:04:48.853Z,1327.50
2019-03-12T12:05:48.833Z,1350.00
2019-03-12T12:06:48.855Z,2340.00
2019-03-12T12:07:48.846Z,2694.38
2019-03-12T12:08:48.857Z,2964.38
2019-03-12T12:09:48.893Z,1929.38
2019-03-12T12:10:48.866Z,888.75
2019-03-12T12:11:48.873Z,2992.50
2019-03-12T12:12:48.882Z,2947.50
2019-03-12T12:13:48.926Z,2857.50
2019-03-12T12:14:48.893Z,2913.75
2019-03-12T12:15:48.898Z,3003.75
2019-03-12T12:16:48.923Z,956.25
2019-03-12T12:17:49.542Z,1080.00
2019-03-12T12:18:48.957Z,3043.13
2019-03-12T12:19:48.930Z,3121.88
2019-03-12T12:20:48.937Z,3015.00
2019-03-12T12:21:48.950Z,3110.63
2019-03-12T12:22:48.996Z,3127.50
2019-03-12T12:23:48.958Z,2615.63
2019-03-12T12:24:48.965Z,2998.13
2019-03-12T12:25:49.447Z,973.13
2019-03-12T12:26:48.981Z,1136.25
2019-03-12T12:27:49.138Z,2936.25
2019-03-12T12:28:48.993Z,1608.75
2019-03-12T12:29:49.001Z,1400.63
2019-03-12T12:30:49.011Z,1293.75
2019-03-12T12:31:49.040Z,2323.13
2019-03-12T12:32:49.079Z,1282.50
2019-03-12T12:33:49.026Z,1125.00
2019-03-12T12:34:49.030Z,2446.88
2019-03-12T12:35:49.033Z,2649.38
2019-03-12T12:36:49.034Z,1473.75
2019-03-12T12:37:49.090Z,1175.63
2019-03-12T12:38:49.051Z,1170.00
2019-03-12T12:39:49.049Z,1271.25
2019-03-12T12:40:49.057Z,3121.88